Pawnee City, Nebraska
Current Conditions -  °F | °C
As of 5:53 PM on Wednesday 22 Oct 2014 (Local Time) from KFNB Reporting Station
Light Rain Light Rain  
Wind Chill: 71°   Ceiling: Unl
Heat Index: 71°   Visibility: 9mi
Dew Point: 56°   Wind: 12mph
Humidity: 59%   Direction: 150°SSE
Pressure: 30.02"   Gusts: NA
Location:  40.11°N, 96.15°W
Report Text: KFNB 222253Z AUTO 15010KT 9SM -RA CLR 22/13 A3002 RMK AO2 RAE03B48 SLP163 P0000 T02170133
Loading
Personal Weather Stations






























Interactive Weather Map
Tropical Storm Tracking
New forecast layout! Learn more

10-Day Weather Forecast

Advertisements
Track Severe Weather on mobile